createdAt,value
2024-01-11T00:02:02.270Z,83.29
2024-01-11T00:04:28.742Z,83.94
2024-01-11T00:06:55.412Z,83.93
2024-01-11T00:09:21.937Z,83.93
2024-01-11T00:11:48.387Z,84.03
2024-01-11T00:14:14.873Z,83.94
2024-01-11T00:16:42.353Z,84.05
2024-01-11T00:19:08.862Z,83.63
2024-01-11T00:21:36.708Z,84.00
2024-01-11T00:24:04.320Z,84.20
2024-01-11T00:26:30.898Z,83.52
2024-01-11T00:28:57.352Z,83.75
2024-01-11T00:31:23.804Z,83.69
2024-01-11T00:33:50.286Z,83.79
2024-01-11T00:36:21.219Z,83.46
2024-01-11T00:38:47.665Z,83.02
2024-01-11T00:41:14.135Z,83.66
2024-01-11T00:43:40.658Z,83.11
2024-01-11T00:46:07.056Z,83.02
2024-01-11T00:48:33.563Z,83.04
2024-01-11T00:51:00.066Z,83.61
2024-01-11T00:53:31.592Z,83.81
2024-01-11T00:55:58.681Z,84.22
2024-01-11T00:58:25.137Z,83.80
2024-01-11T01:00:53.682Z,83.70
2024-01-11T01:03:22.182Z,83.99
2024-01-11T01:05:48.809Z,84.31
2024-01-11T01:08:15.564Z,84.41
2024-01-11T01:10:42.234Z,84.31
2024-01-11T01:13:08.731Z,85.04
2024-01-11T01:15:35.221Z,84.33
2024-01-11T01:18:01.885Z,85.16
2024-01-11T01:20:28.771Z,85.31
2024-01-11T01:22:55.436Z,84.84
2024-01-11T01:25:22.101Z,84.86
2024-01-11T01:27:49.252Z,85.60
2024-01-11T01:30:15.777Z,85.04
2024-01-11T01:32:42.552Z,85.23
2024-01-11T01:35:09.292Z,85.40
2024-01-11T01:37:35.854Z,85.41
2024-01-11T01:40:02.341Z,85.55
2024-01-11T01:42:28.816Z,85.92
2024-01-11T01:44:55.288Z,85.83
2024-01-11T01:47:23.286Z,86.41
2024-01-11T01:49:50.750Z,86.59
2024-01-11T01:52:18.058Z,87.04
2024-01-11T01:54:44.674Z,86.67
2024-01-11T01:57:12.896Z,87.05
2024-01-11T01:59:40.766Z,87.34
2024-01-11T02:02:07.734Z,87.79
2024-01-11T02:04:34.625Z,87.88
2024-01-11T02:07:01.797Z,87.99
2024-01-11T02:09:29.291Z,87.67
2024-01-11T02:11:55.933Z,87.88
2024-01-11T02:14:22.431Z,87.87
2024-01-11T02:16:48.884Z,87.71
2024-01-11T02:19:18.606Z,88.18
2024-01-11T02:21:47.183Z,88.10
2024-01-11T02:24:14.280Z,87.91
2024-01-11T02:27:00.368Z,88.55
2024-01-11T02:29:27.951Z,88.74
2024-01-11T02:31:55.742Z,89.17
2024-01-11T02:34:23.619Z,89.13
2024-01-11T02:36:50.806Z,89.27
2024-01-11T02:39:18.727Z,89.59
2024-01-11T02:41:45.753Z,89.17
2024-01-11T02:44:12.339Z,89.55
2024-01-11T02:46:38.852Z,90.07
2024-01-11T02:49:05.432Z,89.73
2024-01-11T02:51:31.964Z,90.17
2024-01-11T02:53:59.030Z,90.20
2024-01-11T02:56:25.804Z,90.39
2024-01-11T02:58:52.218Z,90.30
2024-01-11T03:01:18.694Z,90.62
2024-01-11T03:03:45.242Z,90.96
2024-01-11T03:06:11.752Z,91.00
2024-01-11T03:08:38.373Z,91.12
2024-01-11T03:11:05.274Z,91.34
2024-01-11T03:13:32.420Z,91.16
2024-01-11T03:15:58.852Z,91.14
2024-01-11T03:18:25.392Z,91.62
2024-01-11T03:20:52.368Z,91.50
2024-01-11T03:23:18.864Z,91.66
2024-01-11T03:25:45.344Z,92.02
2024-01-11T03:28:11.866Z,91.60
2024-01-11T03:30:38.369Z,92.40
2024-01-11T03:33:05.489Z,92.05
2024-01-11T03:35:32.160Z,92.16
2024-01-11T03:37:58.706Z,92.79
2024-01-11T03:40:25.133Z,93.04
2024-01-11T03:42:53.584Z,92.56
2024-01-11T03:45:22.630Z,92.59
2024-01-11T03:47:49.095Z,92.67
2024-01-11T03:50:15.674Z,92.85
2024-01-11T03:52:43.564Z,92.85
2024-01-11T03:55:10.060Z,93.06
2024-01-11T03:57:36.689Z,93.32
2024-01-11T04:00:03.562Z,93.70
2024-01-11T04:02:30.518Z,93.72
2024-01-11T04:04:57.112Z,94.16
2024-01-11T04:07:23.610Z,94.04
2024-01-11T04:09:50.036Z,93.92
2024-01-11T04:12:16.556Z,94.08
2024-01-11T04:14:43.163Z,93.96
2024-01-11T04:17:09.786Z,94.00
2024-01-11T04:19:36.335Z,94.00
2024-01-11T04:22:02.773Z,94.37
2024-01-11T04:24:29.243Z,94.63
2024-01-11T04:26:55.739Z,94.48
2024-01-11T04:29:22.348Z,94.05
2024-01-11T04:31:48.888Z,94.65
2024-01-11T04:34:15.712Z,94.87
2024-01-11T04:36:42.124Z,94.64
2024-01-11T04:39:08.753Z,94.66
2024-01-11T04:41:38.114Z,94.76
2024-01-11T04:44:04.969Z,94.52
2024-01-11T04:46:31.357Z,94.48
2024-01-11T04:48:57.869Z,94.55
2024-01-11T04:51:24.460Z,94.19
2024-01-11T04:53:50.878Z,94.58
2024-01-11T04:56:18.135Z,94.59
2024-01-11T04:58:46.310Z,95.36
2024-01-11T05:01:14.571Z,94.79
2024-01-11T05:03:41.387Z,95.06
2024-01-11T05:06:07.784Z,94.93
2024-01-11T05:08:34.735Z,95.38
2024-01-11T05:11:01.347Z,95.16
2024-01-11T05:13:27.802Z,95.16
2024-01-11T05:15:54.251Z,95.56
2024-01-11T05:18:20.797Z,96.07
2024-01-11T05:20:47.365Z,96.04
2024-01-11T05:23:13.875Z,96.29
2024-01-11T05:25:40.495Z,96.00
2024-01-11T05:28:06.982Z,95.57
2024-01-11T05:30:34.307Z,96.16
2024-01-11T05:33:01.081Z,96.20
2024-01-11T05:35:28.860Z,95.59
2024-01-11T05:37:58.466Z,95.60
2024-01-11T05:40:24.973Z,96.03
2024-01-11T05:42:51.429Z,96.34
2024-01-11T05:45:19.702Z,96.50
2024-01-11T05:47:49.004Z,96.51
2024-01-11T05:50:16.019Z,96.23
2024-01-11T05:52:43.421Z,97.00
2024-01-11T05:55:09.881Z,96.93
2024-01-11T05:57:36.520Z,96.31
2024-01-11T06:00:03.620Z,97.32
2024-01-11T06:02:30.143Z,97.39
2024-01-11T06:04:56.617Z,97.17
2024-01-11T06:07:23.145Z,97.50
2024-01-11T06:09:49.587Z,97.75
2024-01-11T06:12:16.408Z,97.41
2024-01-11T06:14:42.805Z,97.89
2024-01-11T06:17:12.111Z,97.28
2024-01-11T06:19:39.594Z,97.79
2024-01-11T06:22:06.613Z,97.95
2024-01-11T06:24:32.950Z,97.93
2024-01-11T06:26:59.401Z,97.56
2024-01-11T06:29:25.848Z,97.73
2024-01-11T06:31:52.711Z,98.17
2024-01-11T06:34:19.096Z,97.78
2024-01-11T06:36:45.547Z,97.52
2024-01-11T06:39:13.628Z,97.60
2024-01-11T06:41:40.211Z,97.65
2024-01-11T06:44:06.747Z,97.50
2024-01-11T06:46:33.264Z,97.86
2024-01-11T06:48:59.819Z,97.91
2024-01-11T06:51:26.344Z,97.94
2024-01-11T06:53:52.812Z,97.37
2024-01-11T06:56:21.074Z,97.45
2024-01-11T06:58:48.026Z,97.39
2024-01-11T07:01:14.651Z,97.86
2024-01-11T07:03:41.210Z,97.13
2024-01-11T07:06:08.432Z,97.75
2024-01-11T07:08:35.996Z,97.02
2024-01-11T07:11:08.559Z,97.11
2024-01-11T07:13:35.025Z,96.85
2024-01-11T07:16:01.580Z,97.11
2024-01-11T07:18:28.217Z,97.21
2024-01-11T07:20:57.956Z,97.44
2024-01-11T07:23:24.417Z,97.11
2024-01-11T07:25:51.069Z,97.28
2024-01-11T07:28:18.450Z,97.34
2024-01-11T07:30:45.231Z,97.15
2024-01-11T07:33:11.854Z,96.77
2024-01-11T07:35:38.518Z,97.62
2024-01-11T07:38:05.311Z,97.45
2024-01-11T07:40:34.560Z,97.43
2024-01-11T07:43:02.492Z,97.56
2024-01-11T07:45:29.222Z,97.38
2024-01-11T07:47:55.700Z,98.10
2024-01-11T07:50:22.223Z,98.15
2024-01-11T07:52:48.735Z,98.23
2024-01-11T07:55:16.413Z,97.47
2024-01-11T07:57:43.026Z,97.38
2024-01-11T08:00:09.976Z,97.65
2024-01-11T08:02:36.979Z,97.49
2024-01-11T08:05:04.045Z,98.33
2024-01-11T08:07:31.336Z,98.23
2024-01-11T08:09:57.777Z,98.55
2024-01-11T08:12:24.286Z,98.20
2024-01-11T08:14:50.803Z,98.38
2024-01-11T08:17:17.253Z,97.66
2024-01-11T08:19:43.918Z,98.12
2024-01-11T08:22:12.467Z,97.95
2024-01-11T08:24:39.493Z,97.92
2024-01-11T08:27:06.826Z,97.99
2024-01-11T08:29:34.240Z,97.97
2024-01-11T08:32:02.681Z,97.87
2024-01-11T08:34:32.958Z,97.69
2024-01-11T08:37:00.785Z,98.07
2024-01-11T08:39:27.405Z,98.59
2024-01-11T08:41:53.884Z,98.75
2024-01-11T08:44:20.299Z,98.27
2024-01-11T08:46:46.753Z,98.13
2024-01-11T08:49:13.248Z,98.57
2024-01-11T08:51:39.790Z,98.01
2024-01-11T08:54:09.875Z,97.95
2024-01-11T08:56:41.212Z,97.20
2024-01-11T08:59:09.603Z,96.53
2024-01-11T09:01:37.024Z,96.01
2024-01-11T09:04:03.484Z,95.30
2024-01-11T09:06:30.597Z,94.44
2024-01-11T09:08:57.224Z,94.51
2024-01-11T09:11:23.681Z,94.66
2024-01-11T09:13:50.214Z,94.01
2024-01-11T09:16:17.924Z,93.83
2024-01-11T09:18:45.810Z,92.88
2024-01-11T09:21:13.372Z,90.85
2024-01-11T09:23:40.058Z,90.02
2024-01-11T09:26:06.556Z,89.51
2024-01-11T09:28:32.982Z,88.30
2024-01-11T09:31:01.162Z,88.50
2024-01-11T09:33:27.930Z,90.70
2024-01-11T09:35:55.287Z,91.16
2024-01-11T09:38:21.730Z,92.47
2024-01-11T09:41:00.932Z,93.33
2024-01-11T09:43:28.011Z,94.62
2024-01-11T09:45:55.638Z,95.08
2024-01-11T09:48:22.580Z,95.75
2024-01-11T09:50:50.546Z,96.64
2024-01-11T09:53:18.932Z,97.10
2024-01-11T09:55:45.445Z,98.36
2024-01-11T09:58:12.745Z,98.76
2024-01-11T10:00:57.742Z,98.77
2024-01-11T10:03:24.912Z,99.65
2024-01-11T10:05:54.831Z,99.19
2024-01-11T10:08:22.847Z,99.15
2024-01-11T10:10:49.428Z,100.00
2024-01-11T10:13:17.295Z,99.91
2024-01-11T10:15:44.934Z,100.00
2024-01-11T10:18:14.437Z,100.00
2024-01-11T10:20:41.146Z,100.00
2024-01-11T10:23:07.907Z,100.00
2024-01-11T10:25:34.429Z,100.00
2024-01-11T10:28:00.886Z,100.00
2024-01-11T10:30:27.687Z,100.00
2024-01-11T10:32:58.340Z,100.00
2024-01-11T10:35:26.075Z,100.00
2024-01-11T10:37:55.344Z,100.00
2024-01-11T10:40:25.283Z,100.00
2024-01-11T10:42:52.887Z,100.00
2024-01-11T10:45:21.765Z,100.00
2024-01-11T10:47:54.493Z,100.00
2024-01-11T10:50:23.816Z,100.00
2024-01-11T10:53:03.799Z,100.00
2024-01-11T10:55:33.761Z,100.00
2024-01-11T10:58:02.605Z,100.00
2024-01-11T11:00:31.057Z,100.00
2024-01-11T11:03:01.077Z,100.00
2024-01-11T11:05:30.045Z,100.00
2024-01-11T11:07:56.901Z,100.00
2024-01-11T11:10:25.053Z,100.00
2024-01-11T11:12:54.924Z,100.00
2024-01-11T11:15:22.784Z,100.00
2024-01-11T11:17:51.387Z,100.00
2024-01-11T11:20:18.128Z,100.00
2024-01-11T11:23:03.638Z,100.00
2024-01-11T11:25:31.363Z,100.00
2024-01-11T11:28:01.081Z,100.00
2024-01-11T11:30:28.589Z,100.00
2024-01-11T11:32:55.793Z,100.00
2024-01-11T11:35:24.711Z,100.00
2024-01-11T11:37:56.448Z,100.00
2024-01-11T11:40:23.083Z,100.00
2024-01-11T11:42:49.686Z,100.00
2024-01-11T11:45:26.549Z,100.00
2024-01-11T11:47:53.133Z,100.00
2024-01-11T11:50:23.701Z,100.00
2024-01-11T11:52:57.060Z,100.00
2024-01-11T11:55:27.695Z,100.00
2024-01-11T11:57:54.241Z,100.00
2024-01-11T12:00:21.227Z,100.00
2024-01-11T12:02:48.860Z,100.00
2024-01-11T12:05:17.558Z,100.00
2024-01-11T12:07:44.185Z,100.00
2024-01-11T12:10:11.350Z,100.00
2024-01-11T12:12:38.152Z,100.00
2024-01-11T12:15:06.213Z,100.00
2024-01-11T12:17:32.835Z,100.00
2024-01-11T12:19:59.386Z,100.00
2024-01-11T12:22:25.892Z,100.00
2024-01-11T12:24:54.377Z,100.00
2024-01-11T12:27:21.497Z,100.00
2024-01-11T12:29:53.061Z,100.00
2024-01-11T12:32:25.304Z,100.00
2024-01-11T12:34:52.825Z,100.00
2024-01-11T12:37:19.335Z,100.00
2024-01-11T12:39:46.457Z,100.00
2024-01-11T12:42:14.033Z,100.00
2024-01-11T12:44:41.590Z,100.00
2024-01-11T12:47:08.898Z,100.00
2024-01-11T12:49:35.834Z,100.00
2024-01-11T12:52:02.367Z,100.00
2024-01-11T12:54:28.817Z,100.00
2024-01-11T12:56:55.364Z,100.00
2024-01-11T12:59:25.924Z,100.00
2024-01-11T13:01:52.513Z,100.00
2024-01-11T13:04:19.102Z,100.00
2024-01-11T13:06:45.650Z,100.00
2024-01-11T13:09:12.612Z,100.00
2024-01-11T13:11:39.151Z,100.00
2024-01-11T13:14:08.319Z,100.00
2024-01-11T13:16:34.910Z,100.00
2024-01-11T13:19:02.029Z,100.00
2024-01-11T13:21:30.033Z,100.00
2024-01-11T13:23:58.007Z,100.00
2024-01-11T13:26:24.586Z,100.00
2024-01-11T13:28:53.285Z,100.00
2024-01-11T13:31:19.729Z,100.00
2024-01-11T13:33:46.202Z,100.00
2024-01-11T13:36:12.720Z,100.00
2024-01-11T13:38:39.406Z,100.00
2024-01-11T13:41:09.399Z,100.00
2024-01-11T13:43:36.181Z,100.00
2024-01-11T13:46:05.595Z,100.00
2024-01-11T13:48:35.473Z,100.00
2024-01-11T13:51:04.783Z,100.00
2024-01-11T13:53:31.988Z,100.00
2024-01-11T13:55:58.440Z,100.00
2024-01-11T13:58:27.414Z,100.00
2024-01-11T14:00:55.491Z,100.00
2024-01-11T14:03:23.256Z,100.00
2024-01-11T14:05:50.017Z,100.00
2024-01-11T14:08:16.647Z,100.00
2024-01-11T14:10:43.096Z,100.00
2024-01-11T14:13:24.080Z,100.00
2024-01-11T14:15:52.052Z,100.00
2024-01-11T14:18:20.116Z,100.00
2024-01-11T14:20:47.012Z,100.00
2024-01-11T14:23:13.683Z,100.00
2024-01-11T14:25:41.699Z,100.00
2024-01-11T14:28:09.072Z,100.00
2024-01-11T14:30:36.108Z,100.00
2024-01-11T14:33:02.666Z,100.00
2024-01-11T14:35:29.230Z,100.00
2024-01-11T14:37:55.742Z,100.00
2024-01-11T14:40:24.399Z,100.00
2024-01-11T14:42:51.783Z,100.00
2024-01-11T14:45:18.520Z,100.00
2024-01-11T14:47:45.080Z,100.00
2024-01-11T14:50:12.405Z,100.00
2024-01-11T14:52:42.284Z,100.00
2024-01-11T14:55:10.631Z,100.00
2024-01-11T14:57:38.254Z,100.00
2024-01-11T15:00:05.578Z,100.00
2024-01-11T15:02:35.561Z,100.00
2024-01-11T15:05:01.947Z,100.00
2024-01-11T15:07:28.640Z,100.00
2024-01-11T15:09:55.157Z,100.00
2024-01-11T15:12:23.094Z,100.00
2024-01-11T15:14:51.864Z,100.00
2024-01-11T15:17:21.350Z,100.00
2024-01-11T15:19:48.704Z,100.00
2024-01-11T15:22:15.249Z,100.00
2024-01-11T15:24:42.909Z,100.00
2024-01-11T15:27:10.352Z,100.00
2024-01-11T15:29:36.910Z,100.00
2024-01-11T15:32:03.553Z,100.00
2024-01-11T15:34:30.203Z,100.00
2024-01-11T15:36:57.007Z,100.00
2024-01-11T15:39:28.265Z,100.00
2024-01-11T15:41:57.957Z,100.00
2024-01-11T15:44:27.226Z,100.00
2024-01-11T15:46:53.893Z,100.00
2024-01-11T15:49:20.287Z,100.00
2024-01-11T15:51:46.736Z,100.00
2024-01-11T15:54:14.222Z,100.00
2024-01-11T15:56:40.807Z,100.00
2024-01-11T15:59:08.512Z,100.00
2024-01-11T16:01:50.702Z,100.00
2024-01-11T16:04:23.964Z,100.00
2024-01-11T16:06:50.703Z,100.00
2024-01-11T16:09:22.872Z,100.00
2024-01-11T16:11:52.068Z,100.00
2024-01-11T16:14:18.796Z,100.00
2024-01-11T16:16:45.245Z,100.00
2024-01-11T16:19:12.138Z,100.00
2024-01-11T16:21:38.897Z,100.00
2024-01-11T16:24:05.448Z,100.00
2024-01-11T16:26:32.174Z,100.00
2024-01-11T16:28:58.717Z,100.00
2024-01-11T16:31:25.162Z,100.00
2024-01-11T16:33:51.674Z,100.00
2024-01-11T16:36:18.246Z,100.00
2024-01-11T16:38:44.947Z,100.00
2024-01-11T16:41:12.236Z,100.00
2024-01-11T16:43:39.065Z,100.00
2024-01-11T16:46:08.556Z,100.00
2024-01-11T16:48:35.132Z,100.00
2024-01-11T16:51:04.498Z,100.00
2024-01-11T16:53:31.378Z,100.00
2024-01-11T16:55:57.921Z,100.00
2024-01-11T16:58:24.492Z,100.00
2024-01-11T17:00:50.913Z,100.00
2024-01-11T17:03:17.516Z,100.00
2024-01-11T17:05:44.216Z,100.00
2024-01-11T17:08:10.821Z,100.00
2024-01-11T17:10:38.819Z,100.00
2024-01-11T17:13:05.435Z,100.00
2024-01-11T17:15:31.805Z,100.00
2024-01-11T17:17:58.414Z,100.00
2024-01-11T17:20:25.080Z,100.00
2024-01-11T17:22:52.985Z,100.00
2024-01-11T17:25:19.615Z,100.00
2024-01-11T17:27:45.970Z,100.00
2024-01-11T17:30:12.588Z,100.00
2024-01-11T17:32:39.522Z,100.00
2024-01-11T17:35:07.186Z,100.00
2024-01-11T17:37:33.807Z,100.00
2024-01-11T17:40:00.388Z,100.00
2024-01-11T17:42:26.823Z,100.00
2024-01-11T17:44:53.581Z,100.00
2024-01-11T17:47:20.344Z,100.00
2024-01-11T17:49:47.058Z,100.00
2024-01-11T17:52:16.251Z,100.00
2024-01-11T17:54:42.924Z,100.00
2024-01-11T17:57:09.381Z,100.00
2024-01-11T17:59:35.903Z,100.00
2024-01-11T18:02:03.471Z,100.00
2024-01-11T18:04:30.139Z,100.00
2024-01-11T18:06:56.695Z,100.00
2024-01-11T18:09:23.284Z,100.00
2024-01-11T18:11:50.343Z,100.00
2024-01-11T18:14:17.319Z,100.00
2024-01-11T18:16:43.727Z,100.00
2024-01-11T18:19:14.496Z,100.00
2024-01-11T18:21:41.683Z,100.00
2024-01-11T18:24:08.214Z,100.00
2024-01-11T18:26:35.233Z,100.00
2024-01-11T18:29:02.265Z,100.00
2024-01-11T18:31:28.682Z,100.00
2024-01-11T18:33:56.220Z,100.00
2024-01-11T18:36:24.042Z,100.00
2024-01-11T18:38:53.255Z,100.00
2024-01-11T18:41:24.773Z,100.00
2024-01-11T18:43:51.343Z,100.00
2024-01-11T18:46:17.922Z,100.00
2024-01-11T18:48:45.065Z,100.00
2024-01-11T18:51:11.885Z,100.00
2024-01-11T18:53:38.507Z,100.00
2024-01-11T18:56:13.271Z,100.00
2024-01-11T18:58:39.718Z,100.00
2024-01-11T19:01:09.540Z,100.00
2024-01-11T19:03:39.768Z,100.00
2024-01-11T19:06:07.914Z,100.00
2024-01-11T19:08:35.199Z,100.00
2024-01-11T19:11:01.731Z,100.00
2024-01-11T19:13:28.061Z,100.00
2024-01-11T19:15:55.102Z,100.00
2024-01-11T19:18:21.675Z,100.00
2024-01-11T19:20:53.879Z,100.00
2024-01-11T19:23:27.842Z,100.00
2024-01-11T19:25:56.167Z,100.00
2024-01-11T19:28:22.803Z,100.00
2024-01-11T19:30:49.316Z,100.00
2024-01-11T19:33:17.878Z,100.00
2024-01-11T19:35:45.237Z,100.00
2024-01-11T19:38:13.452Z,100.00
2024-01-11T19:40:43.138Z,100.00
2024-01-11T19:43:10.321Z,100.00
2024-01-11T19:45:37.135Z,100.00
2024-01-11T19:48:04.193Z,100.00
2024-01-11T19:50:32.175Z,100.00
2024-01-11T19:52:58.648Z,100.00
2024-01-11T19:55:25.174Z,100.00
2024-01-11T19:57:51.671Z,100.00
2024-01-11T20:00:17.975Z,100.00
2024-01-11T20:02:44.522Z,100.00
2024-01-11T20:05:10.997Z,100.00
2024-01-11T20:07:37.668Z,100.00
2024-01-11T20:10:04.462Z,100.00
2024-01-11T20:12:30.965Z,100.00
2024-01-11T20:14:57.394Z,100.00
2024-01-11T20:17:23.859Z,100.00
2024-01-11T20:19:52.396Z,100.00
2024-01-11T20:22:20.289Z,100.00
2024-01-11T20:24:47.038Z,100.00
2024-01-11T20:27:13.578Z,100.00
2024-01-11T20:29:41.190Z,100.00
2024-01-11T20:32:07.881Z,100.00
2024-01-11T20:34:35.020Z,100.00
2024-01-11T20:37:01.952Z,100.00
2024-01-11T20:39:28.349Z,100.00
2024-01-11T20:41:57.037Z,100.00
2024-01-11T20:44:23.913Z,100.00
2024-01-11T20:46:50.389Z,100.00
2024-01-11T20:49:16.774Z,100.00
2024-01-11T20:51:46.712Z,100.00
2024-01-11T20:54:13.674Z,100.00
2024-01-11T20:56:46.081Z,100.00
2024-01-11T20:59:12.905Z,100.00
2024-01-11T21:01:40.640Z,100.00
2024-01-11T21:04:07.399Z,100.00
2024-01-11T21:06:34.095Z,100.00
2024-01-11T21:09:04.577Z,100.00
2024-01-11T21:11:38.474Z,100.00
2024-01-11T21:14:19.437Z,100.00
2024-01-11T21:16:46.991Z,100.00
2024-01-11T21:19:13.543Z,100.00
2024-01-11T21:21:44.999Z,100.00
2024-01-11T21:24:11.408Z,100.00
2024-01-11T21:26:38.076Z,100.00
2024-01-11T21:29:18.001Z,100.00
2024-01-11T21:31:44.565Z,100.00
2024-01-11T21:34:11.084Z,100.00
2024-01-11T21:36:37.681Z,100.00
2024-01-11T21:39:04.422Z,100.00
2024-01-11T21:41:34.756Z,100.00
2024-01-11T21:44:01.456Z,100.00
2024-01-11T21:46:28.449Z,100.00
2024-01-11T21:48:55.261Z,100.00
2024-01-11T21:51:21.864Z,100.00
2024-01-11T21:53:48.428Z,100.00
2024-01-11T21:56:14.938Z,100.00
2024-01-11T21:58:41.425Z,100.00
2024-01-11T22:01:10.587Z,100.00
2024-01-11T22:03:37.160Z,100.00
2024-01-11T22:06:04.596Z,100.00
2024-01-11T22:08:31.516Z,100.00
2024-01-11T22:10:58.040Z,100.00
2024-01-11T22:13:24.322Z,100.00
2024-01-11T22:15:50.709Z,100.00
2024-01-11T22:18:17.440Z,100.00
2024-01-11T22:20:44.345Z,100.00
2024-01-11T22:23:10.988Z,100.00
2024-01-11T22:25:37.429Z,100.00
2024-01-11T22:28:04.125Z,100.00
2024-01-11T22:30:30.790Z,100.00
2024-01-11T22:32:57.671Z,100.00
2024-01-11T22:35:24.245Z,100.00
2024-01-11T22:37:51.435Z,100.00
2024-01-11T22:40:18.608Z,100.00
2024-01-11T22:42:45.138Z,100.00
2024-01-11T22:45:11.521Z,100.00
2024-01-11T22:47:38.139Z,100.00
2024-01-11T22:50:05.297Z,100.00
2024-01-11T22:52:31.917Z,100.00
2024-01-11T22:54:58.295Z,100.00
2024-01-11T22:57:24.696Z,100.00
2024-01-11T22:59:51.282Z,100.00
2024-01-11T23:02:17.847Z,100.00
2024-01-11T23:04:44.295Z,100.00
2024-01-11T23:07:10.638Z,100.00
2024-01-11T23:09:37.734Z,100.00
2024-01-11T23:12:06.712Z,100.00
2024-01-11T23:14:33.449Z,100.00
2024-01-11T23:17:00.069Z,100.00
2024-01-11T23:19:27.849Z,100.00
2024-01-11T23:21:54.355Z,100.00
2024-01-11T23:24:20.683Z,100.00
2024-01-11T23:26:47.122Z,100.00
2024-01-11T23:29:13.567Z,100.00
2024-01-11T23:31:40.119Z,100.00
2024-01-11T23:34:06.684Z,100.00
2024-01-11T23:36:33.337Z,100.00
2024-01-11T23:38:59.745Z,100.00
2024-01-11T23:41:26.160Z,100.00
2024-01-11T23:43:52.630Z,100.00
2024-01-11T23:46:18.965Z,100.00
2024-01-11T23:48:45.659Z,100.00
2024-01-11T23:51:12.260Z,100.00
2024-01-11T23:53:38.786Z,100.00
2024-01-11T23:56:05.354Z,100.00
2024-01-11T23:58:32.073Z,100.00
